Time;durP1;ratioP1;P1;durP2;ratioP2;P2;SDS_P1;SDS_P2;PMS_P1;PMS_P2;Temp;Humidity;BMP_temperature;BMP_pressure;BME280_temperature;BME280_humidity;BME280_pressure;Samples;Min_cycle;Max_cycle;Signal;HPM_P1;HPM_P2
2023/07/16 00:00:08;;;;;;;5.78;1.98;;;18.30;91.20;;;;;;4986989;28;20230;-71
2023/07/16 00:02:34;;;;;;;6.30;1.92;;;18.30;91.90;;;;;;4986561;28;20435;-70
2023/07/16 00:05:00;;;;;;;3.35;1.67;;;18.10;92.50;;;;;;4978711;28;20037;-70
2023/07/16 00:07:26;;;;;;;5.65;1.70;;;18.10;92.90;;;;;;4987178;28;20035;-71
2023/07/16 00:09:51;;;;;;;3.25;1.95;;;18.00;93.20;;;;;;4992160;28;20036;-70
2023/07/16 00:12:17;;;;;;;3.15;1.80;;;18.00;93.70;;;;;;4988239;28;20027;-71
2023/07/16 00:14:42;;;;;;;4.35;2.15;;;17.90;94.20;;;;;;4983184;28;20117;-70
2023/07/16 00:17:08;;;;;;;5.78;1.85;;;17.80;94.50;;;;;;4986915;28;20114;-70
2023/07/16 00:19:33;;;;;;;4.28;2.13;;;17.80;94.70;;;;;;4988406;28;20041;-69
2023/07/16 00:21:59;;;;;;;5.90;2.15;;;17.70;94.80;;;;;;4976617;28;20030;-70
2023/07/16 00:24:24;;;;;;;4.88;2.10;;;17.70;94.90;;;;;;4985244;28;20389;-70
2023/07/16 00:26:50;;;;;;;4.40;2.15;;;17.70;95.00;;;;;;4989989;28;20026;-70
2023/07/16 00:29:15;;;;;;;6.43;2.47;;;17.70;95.40;;;;;;4988481;28;20037;-69
2023/07/16 00:31:41;;;;;;;4.15;2.28;;;17.70;95.30;;;;;;4987436;28;20451;-70
2023/07/16 00:34:06;;;;;;;5.82;2.60;;;17.80;95.40;;;;;;4984889;28;20133;-69
2023/07/16 00:36:32;;;;;;;4.63;2.28;;;17.80;95.40;;;;;;4983384;28;20034;-70
2023/07/16 00:38:57;;;;;;;4.10;2.10;;;17.70;95.30;;;;;;4985688;28;20335;-69
2023/07/16 00:41:23;;;;;;;5.65;2.33;;;17.70;95.40;;;;;;4989104;28;20034;-70
2023/07/16 00:43:48;;;;;;;4.28;2.20;;;17.70;95.30;;;;;;4985353;28;20447;-71
2023/07/16 00:46:13;;;;;;;6.28;2.47;;;17.60;95.40;;;;;;4986602;28;20042;-69
2023/07/16 00:48:41;;;;;;;4.22;2.15;;;17.60;95.40;;;;;;4986499;28;20039;-69
2023/07/16 00:51:06;;;;;;;5.93;2.40;;;17.60;95.40;;;;;;4981857;28;20126;-70
2023/07/16 00:53:32;;;;;;;7.25;2.47;;;17.60;95.70;;;;;;4985109;28;20216;-70
2023/07/16 00:55:58;;;;;;;5.50;2.40;;;17.60;95.60;;;;;;4985421;28;20106;-69
2023/07/16 00:58:24;;;;;;;5.22;2.05;;;17.60;95.70;;;;;;4986578;28;20043;-70
2023/07/16 01:00:49;;;;;;;7.22;2.33;;;17.60;95.50;;;;;;4978760;28;20035;-70
2023/07/16 01:03:15;;;;;;;5.43;2.42;;;17.50;95.40;;;;;;4983874;28;20034;-72
2023/07/16 01:06:04;;;;;;;5.13;2.35;;;17.50;95.40;;;;;;4983664;28;20023;-70
2023/07/16 01:08:36;;;;;;;6.72;2.58;;;17.50;95.30;;;;;;4982093;28;20030;-70
2023/07/16 01:11:04;;;;;;;5.18;2.25;;;17.50;95.40;;;;;;4986604;28;20065;-70
2023/07/16 01:13:30;;;;;;;4.68;2.30;;;17.50;95.30;;;;;;4987171;28;20378;-70
2023/07/16 01:15:56;;;;;;;5.85;2.25;;;17.50;95.20;;;;;;4977698;28;20034;-70
2023/07/16 01:18:21;;;;;;;4.25;1.98;;;17.50;95.10;;;;;;4991918;28;20168;-70
2023/07/16 01:20:47;;;;;;;4.45;1.77;;;17.50;95.30;;;;;;4984638;28;20049;-70
2023/07/16 01:23:28;;;;;;;5.88;1.95;;;17.50;95.20;;;;;;4980020;28;20018;-70
2023/07/16 01:26:34;;;;;;;4.40;2.03;;;17.50;95.40;;;;;;4982870;28;20029;-70
2023/07/16 01:29:27;;;;;;;4.18;2.13;;;17.50;95.20;;;;;;4985694;28;20061;-70
2023/07/16 01:31:55;;;;;;;4.32;2.10;;;17.50;95.40;;;;;;4974471;28;20042;-70
2023/07/16 01:34:22;;;;;;;4.75;2.50;;;17.50;95.20;;;;;;4978083;28;20525;-70
2023/07/16 01:36:49;;;;;;;5.47;2.65;;;17.50;95.10;;;;;;4978615;28;20121;-71
2023/07/16 01:39:14;;;;;;;4.80;2.10;;;17.50;95.20;;;;;;4984178;28;20043;-69
2023/07/16 01:41:40;;;;;;;5.75;2.30;;;17.50;95.30;;;;;;4983693;28;20549;-71
2023/07/16 01:44:05;;;;;;;4.25;2.20;;;17.50;95.40;;;;;;4984675;28;20026;-71
2023/07/16 01:46:32;;;;;;;4.72;2.00;;;17.50;95.40;;;;;;4983359;28;20038;-70
2023/07/16 01:48:57;;;;;;;8.75;2.28;;;17.50;95.20;;;;;;4982316;28;20101;-71
2023/07/16 01:51:23;;;;;;;3.83;1.90;;;17.40;95.20;;;;;;4985350;28;20382;-70
2023/07/16 01:53:48;;;;;;;4.32;2.25;;;17.40;95.20;;;;;;4980755;28;20114;-71
2023/07/16 01:56:14;;;;;;;8.05;2.28;;;17.40;95.20;;;;;;4989524;28;20426;-71
2023/07/16 01:58:39;;;;;;;8.95;2.53;;;17.30;95.00;;;;;;4988824;28;20162;-70
2023/07/16 02:01:05;;;;;;;4.32;2.17;;;17.30;95.20;;;;;;4988058;28;20439;-71
2023/07/16 02:03:30;;;;;;;4.05;2.10;;;17.30;95.40;;;;;;4991116;28;20126;-70
2023/07/16 02:05:56;;;;;;;5.55;2.28;;;17.30;95.40;;;;;;4982755;28;20048;-70
2023/07/16 02:08:21;;;;;;;6.72;2.28;;;17.30;95.30;;;;;;4987306;28;20027;-72
2023/07/16 02:10:47;;;;;;;7.78;2.40;;;17.30;95.20;;;;;;4986182;28;20339;-70
2023/07/16 02:13:13;;;;;;;4.50;2.33;;;17.30;95.20;;;;;;4988472;28;20455;-70
2023/07/16 02:15:39;;;;;;;8.13;2.80;;;17.40;95.20;;;;;;4985464;28;20049;-70
2023/07/16 02:18:06;;;;;;;4.32;2.17;;;17.40;95.20;;;;;;4986948;28;20141;-70
2023/07/16 02:20:31;;;;;;;6.38;2.00;;;17.30;95.10;;;;;;4983530;28;20101;-70
2023/07/16 02:22:57;;;;;;;5.47;2.60;;;17.40;95.10;;;;;;4986831;28;20327;-70
2023/07/16 02:25:22;;;;;;;4.88;2.58;;;17.30;95.10;;;;;;4983239;28;20100;-70
2023/07/16 02:27:48;;;;;;;4.40;2.17;;;17.30;95.10;;;;;;4985666;28;20320;-70
2023/07/16 02:30:17;;;;;;;8.65;2.78;;;17.40;95.20;;;;;;4989208;28;20034;-70
2023/07/16 02:32:43;;;;;;;6.25;2.30;;;17.40;95.40;;;;;;4987618;28;20117;-69
2023/07/16 02:35:09;;;;;;;7.07;2.45;;;17.30;95.60;;;;;;4985130;28;20161;-70
2023/07/16 02:37:34;;;;;;;6.43;2.47;;;17.20;95.70;;;;;;4980046;28;20133;-70
2023/07/16 02:40:00;;;;;;;4.65;2.63;;;17.20;95.90;;;;;;4986976;28;20581;-69
2023/07/16 02:42:26;;;;;;;6.25;2.17;;;17.10;95.90;;;;;;4992911;28;20030;-71
2023/07/16 02:44:51;;;;;;;8.63;2.72;;;17.10;95.90;;;;;;4983405;28;20454;-70
2023/07/16 02:47:17;;;;;;;7.22;2.88;;;17.10;96.10;;;;;;4983796;28;20220;-70
2023/07/16 02:49:42;;;;;;;8.45;2.75;;;17.00;96.20;;;;;;4986226;28;20034;-73
2023/07/16 02:52:08;;;;;;;5.85;2.80;;;17.00;96.30;;;;;;4984579;28;20034;-70
2023/07/16 02:54:35;;;;;;;6.72;2.72;;;17.00;96.40;;;;;;4987335;28;20138;-71
2023/07/16 02:57:01;;;;;;;6.20;2.50;;;17.00;96.40;;;;;;4987651;28;20035;-70
2023/07/16 02:59:26;;;;;;;6.43;2.35;;;17.00;96.50;;;;;;4982262;28;20130;-70
2023/07/16 03:01:52;;;;;;;7.97;2.95;;;17.00;96.60;;;;;;4982235;28;20067;-71
2023/07/16 03:04:17;;;;;;;6.28;2.65;;;17.00;96.60;;;;;;4988629;28;20077;-70
2023/07/16 03:06:43;;;;;;;7.57;3.17;;;17.00;96.60;;;;;;4991538;28;20034;-70
2023/07/16 03:09:08;;;;;;;8.73;2.95;;;17.00;96.50;;;;;;4986016;28;20070;-70
2023/07/16 03:11:34;;;;;;;9.07;3.08;;;17.00;96.40;;;;;;4986083;28;20121;-71
2023/07/16 03:13:59;;;;;;;5.75;2.67;;;17.00;96.50;;;;;;4983099;28;20446;-71
2023/07/16 03:16:25;;;;;;;9.30;3.28;;;16.90;96.40;;;;;;4985508;28;20149;-69
2023/07/16 03:18:50;;;;;;;6.97;2.80;;;16.90;96.70;;;;;;4988526;28;20120;-70
2023/07/16 03:21:16;;;;;;;6.53;2.70;;;16.80;96.70;;;;;;4983742;28;20097;-70
2023/07/16 03:23:41;;;;;;;4.63;2.65;;;16.80;96.80;;;;;;4987114;28;20469;-70
2023/07/16 03:26:07;;;;;;;6.82;3.00;;;16.70;96.60;;;;;;4988570;28;20109;-70
2023/07/16 03:28:32;;;;;;;6.30;2.80;;;16.70;96.70;;;;;;4984965;28;20085;-70
2023/07/16 03:30:57;;;;;;;11.70;3.38;;;16.70;96.90;;;;;;4984619;28;20052;-70
2023/07/16 03:33:23;;;;;;;5.75;2.95;;;16.50;97.00;;;;;;4995439;28;20450;-68
2023/07/16 03:35:49;;;;;;;8.00;3.50;;;16.50;97.00;;;;;;4991271;28;20060;-71
2023/07/16 03:38:15;;;;;;;7.10;3.55;;;16.50;97.00;;;;;;4981630;28;20105;-70
2023/07/16 03:40:46;;;;;;;9.68;3.45;;;16.50;97.10;;;;;;4983949;28;20109;-71
2023/07/16 03:43:11;;;;;;;8.82;3.67;;;16.60;97.20;;;;;;4988201;28;20049;-70
2023/07/16 03:45:37;;;;;;;13.60;3.53;;;16.60;97.10;;;;;;4992356;28;20080;-70
2023/07/16 03:48:02;;;;;;;9.63;3.38;;;16.60;97.20;;;;;;4985038;28;20018;-70
2023/07/16 03:50:28;;;;;;;6.25;3.22;;;16.60;97.10;;;;;;4985687;28;20511;-69
2023/07/16 03:52:53;;;;;;;7.75;3.60;;;16.60;97.00;;;;;;4986706;28;20097;-69
2023/07/16 03:55:19;;;;;;;5.88;3.35;;;16.70;97.10;;;;;;4978574;28;20034;-71
2023/07/16 03:57:45;;;;;;;6.93;3.63;;;16.70;97.00;;;;;;4982100;28;20030;-70
2023/07/16 04:00:10;;;;;;;7.97;3.47;;;16.70;96.90;;;;;;4985623;28;20030;-71
2023/07/16 04:02:36;;;;;;;8.88;3.47;;;16.70;96.90;;;;;;4987843;28;20186;-69
2023/07/16 04:05:02;;;;;;;6.70;3.80;;;16.80;96.90;;;;;;4986949;28;20454;-71
2023/07/16 04:07:28;;;;;;;8.30;3.42;;;16.80;96.70;;;;;;4984242;28;20097;-69
2023/07/16 04:09:53;;;;;;;8.70;3.67;;;16.70;96.60;;;;;;4986856;28;20368;-69
2023/07/16 04:12:19;;;;;;;9.18;3.15;;;16.70;96.60;;;;;;4990438;28;20081;-70
2023/07/16 04:14:45;;;;;;;6.68;3.13;;;16.60;96.70;;;;;;4979488;28;20140;-71
2023/07/16 04:17:11;;;;;;;9.57;3.25;;;16.70;96.80;;;;;;4978043;28;20477;-71
2023/07/16 04:19:37;;;;;;;8.15;3.33;;;16.70;96.80;;;;;;4977795;28;20153;-70
2023/07/16 04:22:03;;;;;;;8.35;3.42;;;16.70;96.70;;;;;;4985033;28;20053;-70
2023/07/16 04:24:29;;;;;;;6.15;2.70;;;16.60;96.60;;;;;;4982609;28;20487;-71
2023/07/16 04:26:54;;;;;;;7.68;2.83;;;16.60;96.50;;;;;;4985176;28;20081;-70
2023/07/16 04:29:20;;;;;;;8.60;3.00;;;16.70;96.40;;;;;;4985170;28;20178;-67
2023/07/16 04:31:45;;;;;;;5.78;3.10;;;16.70;96.50;;;;;;4986608;28;20164;-67
2023/07/16 04:34:11;;;;;;;5.68;2.85;;;16.60;96.30;;;;;;4988343;28;20125;-67
2023/07/16 04:36:37;;;;;;;8.55;2.45;;;16.60;96.20;;;;;;4990733;28;20030;-67
2023/07/16 04:39:03;;;;;;;8.23;2.97;;;16.60;96.10;;;;;;4980106;28;20041;-67
2023/07/16 04:41:28;;;;;;;9.10;2.85;;;16.60;96.00;;;;;;4987808;28;20030;-66
2023/07/16 04:43:54;;;;;;;8.20;3.35;;;16.80;95.80;;;;;;4983991;28;20073;-67
2023/07/16 04:46:19;;;;;;;6.72;2.45;;;16.90;95.80;;;;;;4981509;28;20042;-66
2023/07/16 04:48:45;;;;;;;9.23;3.20;;;17.00;95.70;;;;;;4991380;28;20045;-68
2023/07/16 04:51:10;;;;;;;6.32;2.50;;;17.10;95.20;;;;;;4981082;28;20481;-67
2023/07/16 04:53:36;;;;;;;6.22;2.55;;;17.30;95.00;;;;;;4985468;28;20049;-67
2023/07/16 04:56:01;;;;;;;7.63;2.53;;;17.40;94.80;;;;;;4986014;28;20100;-67
2023/07/16 04:58:26;;;;;;;6.13;2.30;;;17.40;94.40;;;;;;4985982;28;20050;-68
2023/07/16 05:00:52;;;;;;;5.90;2.35;;;17.40;94.60;;;;;;4982332;28;20065;-68
2023/07/16 05:03:17;;;;;;;9.23;2.55;;;17.30;94.60;;;;;;4986464;28;20026;-67
2023/07/16 05:05:43;;;;;;;8.02;2.28;;;17.30;94.60;;;;;;4983510;28;20030;-67
2023/07/16 05:08:08;;;;;;;6.97;2.65;;;17.40;94.50;;;;;;4993016;28;20030;-67
2023/07/16 05:10:34;;;;;;;3.80;2.20;;;17.50;94.30;;;;;;4980512;28;20109;-67
2023/07/16 05:12:59;;;;;;;7.65;2.53;;;17.50;93.90;;;;;;4984069;28;20045;-67
2023/07/16 05:15:25;;;;;;;5.20;2.28;;;17.60;93.90;;;;;;4983073;28;20352;-67
2023/07/16 05:17:50;;;;;;;6.55;2.25;;;17.60;93.10;;;;;;4983749;28;20169;-67
2023/07/16 05:20:16;;;;;;;6.15;2.05;;;17.50;93.30;;;;;;4982512;28;20507;-67
2023/07/16 05:22:41;;;;;;;5.10;2.35;;;17.50;93.40;;;;;;4984126;28;20121;-67
2023/07/16 05:25:07;;;;;;;6.22;2.20;;;17.50;93.20;;;;;;4977050;28;20034;-67
2023/07/16 05:27:33;;;;;;;7.45;2.63;;;17.60;93.10;;;;;;4990332;28;20049;-68
2023/07/16 05:29:58;;;;;;;5.22;2.30;;;17.60;93.30;;;;;;4985678;28;20030;-69
2023/07/16 05:32:24;;;;;;;7.78;2.03;;;17.80;92.90;;;;;;4984159;28;20105;-67
2023/07/16 05:34:49;;;;;;;7.05;2.47;;;17.80;92.60;;;;;;4988473;28;20042;-67
2023/07/16 05:37:15;;;;;;;5.95;2.15;;;17.90;91.80;;;;;;4996233;28;20450;-67
2023/07/16 05:39:40;;;;;;;4.88;1.95;;;18.00;92.10;;;;;;4987546;28;20129;-68
2023/07/16 05:42:06;;;;;;;3.47;1.98;;;18.00;91.50;;;;;;4987623;28;20038;-67
2023/07/16 05:44:32;;;;;;;8.57;2.25;;;18.00;91.40;;;;;;4982703;28;20039;-69
2023/07/16 05:46:57;;;;;;;5.97;2.50;;;18.00;91.50;;;;;;4985822;28;20164;-67
2023/07/16 05:49:25;;;;;;;8.20;2.67;;;18.10;90.90;;;;;;4989360;28;20092;-68
2023/07/16 05:51:51;;;;;;;8.75;2.25;;;18.20;91.20;;;;;;4988156;28;20026;-68
2023/07/16 05:54:16;;;;;;;5.97;2.28;;;18.20;90.30;;;;;;4985511;28;20454;-67
2023/07/16 05:56:42;;;;;;;5.13;1.92;;;18.20;90.00;;;;;;4987488;28;20117;-68
2023/07/16 05:59:07;;;;;;;5.68;2.22;;;18.40;90.70;;;;;;4989140;28;20423;-68
2023/07/16 06:01:33;;;;;;;7.97;2.28;;;18.50;90.60;;;;;;4986838;28;20026;-67
2023/07/16 06:03:58;;;;;;;8.77;2.38;;;18.50;90.20;;;;;;4990838;28;20050;-67
2023/07/16 06:06:24;;;;;;;9.50;2.17;;;18.50;90.10;;;;;;4983037;28;20054;-68
2023/07/16 06:08:49;;;;;;;6.00;2.05;;;18.60;89.20;;;;;;4986080;28;20069;-67
2023/07/16 06:11:15;;;;;;;5.18;2.00;;;18.70;89.00;;;;;;4986580;28;20034;-68
2023/07/16 06:13:40;;;;;;;7.30;2.22;;;18.80;88.90;;;;;;4978440;28;20034;-69
2023/07/16 06:16:06;;;;;;;3.75;1.73;;;18.80;88.90;;;;;;4977009;28;20049;-67
2023/07/16 06:18:31;;;;;;;6.65;2.20;;;18.80;88.80;;;;;;4981231;28;20049;-69
2023/07/16 06:20:57;;;;;;;4.97;2.03;;;18.80;88.70;;;;;;4987947;28;20042;-68
2023/07/16 06:23:22;;;;;;;5.57;1.95;;;18.80;88.90;;;;;;4983009;28;20018;-70
2023/07/16 06:25:49;;;;;;;7.78;2.50;;;19.00;88.40;;;;;;4985341;28;20041;-74
2023/07/16 06:28:15;;;;;;;8.13;2.60;;;19.00;86.80;;;;;;4993016;28;20109;-71
2023/07/16 06:30:40;;;;;;;8.25;1.92;;;19.20;87.50;;;;;;4990612;28;20761;-73
2023/07/16 06:33:06;;;;;;;5.70;2.45;;;19.40;87.30;;;;;;4984489;28;20034;-70
2023/07/16 06:35:32;;;;;;;6.68;1.92;;;19.40;85.70;;;;;;4992242;28;20467;-70
2023/07/16 06:37:57;;;;;;;9.10;2.60;;;19.50;85.60;;;;;;4992548;28;20113;-70
2023/07/16 06:40:24;;;;;;;6.40;2.42;;;19.50;83.10;;;;;;4993081;28;20085;-70
2023/07/16 06:42:49;;;;;;;9.18;2.25;;;19.50;83.00;;;;;;4989637;28;20172;-72
2023/07/16 06:45:15;;;;;;;7.65;2.58;;;19.50;81.70;;;;;;4992713;28;20367;-71
2023/07/16 06:47:40;;;;;;;5.53;2.00;;;19.60;81.50;;;;;;4989641;28;20039;-70
2023/07/16 06:50:06;;;;;;;5.30;2.10;;;19.90;82.00;;;;;;4982862;28;20076;-70
2023/07/16 06:52:32;;;;;;;6.70;2.00;;;20.00;80.50;;;;;;4987543;28;20057;-71
2023/07/16 06:54:57;;;;;;;9.32;2.40;;;19.90;80.80;;;;;;4990053;28;20026;-71
2023/07/16 06:57:23;;;;;;;6.60;2.20;;;19.90;80.60;;;;;;4997141;28;20459;-70
2023/07/16 06:59:49;;;;;;;6.45;2.30;;;20.00;80.20;;;;;;4989798;28;20026;-68
2023/07/16 07:02:16;;;;;;;6.57;2.30;;;20.00;78.70;;;;;;4985039;28;20133;-70
2023/07/16 07:04:42;;;;;;;6.53;2.30;;;19.80;78.70;;;;;;4993024;28;20042;-71
2023/07/16 07:07:08;;;;;;;8.52;2.40;;;20.00;77.50;;;;;;4991718;28;20038;-70
2023/07/16 07:09:33;;;;;;;9.27;2.33;;;20.00;76.70;;;;;;4996220;28;20104;-71
2023/07/16 07:11:59;;;;;;;8.23;2.22;;;20.20;76.90;;;;;;4988005;28;20046;-71
2023/07/16 07:14:24;;;;;;;8.02;2.65;;;20.30;77.10;;;;;;4995447;28;20109;-72
2023/07/16 07:16:50;;;;;;;7.28;2.42;;;20.60;76.50;;;;;;4993717;28;20042;-71
2023/07/16 07:19:15;;;;;;;5.60;2.30;;;20.60;73.20;;;;;;4989068;28;20027;-72
2023/07/16 07:21:41;;;;;;;7.57;2.10;;;20.70;73.50;;;;;;4981251;28;20074;-70
2023/07/16 07:24:06;;;;;;;11.13;2.58;;;20.70;73.40;;;;;;4982921;28;20379;-71
2023/07/16 07:26:32;;;;;;;5.40;2.25;;;20.80;72.80;;;;;;4987070;28;20336;-71
2023/07/16 07:28:58;;;;;;;8.70;2.10;;;20.90;72.00;;;;;;4986716;28;20345;-71
2023/07/16 07:31:23;;;;;;;6.75;2.40;;;20.90;72.60;;;;;;4981625;28;20053;-71
2023/07/16 07:33:49;;;;;;;8.48;2.28;;;21.00;71.40;;;;;;4990597;28;20050;-71
2023/07/16 07:36:14;;;;;;;9.63;2.53;;;20.90;71.60;;;;;;4990728;28;20044;-72
2023/07/16 07:38:40;;;;;;;6.35;1.88;;;21.00;72.00;;;;;;4989320;28;20144;-71
2023/07/16 07:41:06;;;;;;;9.02;2.15;;;20.70;72.70;;;;;;4990699;28;20363;-71
2023/07/16 07:43:31;;;;;;;5.22;1.90;;;20.60;71.50;;;;;;4988118;28;20034;-71
2023/07/16 07:45:57;;;;;;;8.10;2.20;;;20.90;73.30;;;;;;4988767;28;20100;-70
2023/07/16 07:48:23;;;;;;;8.30;2.00;;;21.30;72.00;;;;;;4987820;28;20034;-71
2023/07/16 07:50:48;;;;;;;6.75;2.03;;;21.00;71.00;;;;;;4972517;28;20355;-71
2023/07/16 07:53:20;;;;;;;9.50;2.20;;;21.00;70.40;;;;;;4980467;28;20050;-70
2023/07/16 07:55:46;;;;;;;8.18;2.10;;;21.20;71.00;;;;;;4985091;28;20064;-71
2023/07/16 07:58:12;;;;;;;7.45;2.28;;;21.70;70.80;;;;;;4981871;28;20030;-71
2023/07/16 08:00:38;;;;;;;5.20;1.95;;;21.50;70.00;;;;;;4980392;28;20066;-71
2023/07/16 08:03:03;;;;;;;5.65;1.92;;;21.50;68.50;;;;;;4977640;28;20088;-71
2023/07/16 08:05:29;;;;;;;7.47;2.10;;;21.50;68.50;;;;;;4982695;28;20237;-72
2023/07/16 08:07:55;;;;;;;10.25;2.05;;;21.40;69.10;;;;;;4982940;28;20034;-71
2023/07/16 08:10:21;;;;;;;7.50;2.13;;;21.30;68.50;;;;;;4986700;28;20036;-71
2023/07/16 08:12:47;;;;;;;9.73;2.40;;;21.00;70.00;;;;;;4980761;28;20053;-71
2023/07/16 08:15:15;;;;;;;5.38;2.10;;;20.70;70.90;;;;;;4981685;28;20026;-71
2023/07/16 08:17:42;;;;;;;9.45;2.40;;;20.90;72.00;;;;;;4983037;28;20049;-72
2023/07/16 08:20:08;;;;;;;7.10;2.10;;;21.10;71.80;;;;;;4979326;28;20030;-71
2023/07/16 08:22:34;;;;;;;8.20;2.40;;;21.50;71.20;;;;;;4983510;28;20044;-71
2023/07/16 08:24:59;;;;;;;7.72;2.72;;;21.80;67.20;;;;;;4975931;28;20388;-71
2023/07/16 08:27:25;;;;;;;4.47;2.33;;;22.00;63.70;;;;;;4983644;28;20094;-72
2023/07/16 08:29:50;;;;;;;5.57;2.85;;;21.40;63.00;;;;;;4985051;28;20030;-72
2023/07/16 08:32:16;;;;;;;7.88;2.97;;;21.30;62.30;;;;;;4982543;28;20439;-70
2023/07/16 08:34:41;;;;;;;6.88;3.13;;;21.70;60.50;;;;;;4982736;28;20050;-73
2023/07/16 08:37:07;;;;;;;10.50;3.22;;;21.90;60.40;;;;;;4975640;28;20466;-71
2023/07/16 08:39:32;;;;;;;9.00;3.63;;;22.10;60.90;;;;;;4976153;28;20073;-72
2023/07/16 08:41:58;;;;;;;8.43;3.58;;;22.50;62.70;;;;;;4979086;28;20039;-72
2023/07/16 08:44:23;;;;;;;7.55;3.60;;;22.40;58.70;;;;;;4987439;28;20509;-72
2023/07/16 08:46:50;;;;;;;6.72;3.50;;;22.40;59.80;;;;;;4981470;28;20042;-73
2023/07/16 08:49:21;;;;;;;7.95;2.97;;;22.80;59.50;;;;;;4993554;28;20041;-72
2023/07/16 08:51:49;;;;;;;4.70;2.58;;;22.90;57.20;;;;;;4986474;28;20065;-70
2023/07/16 08:54:17;;;;;;;7.57;2.90;;;23.40;56.50;;;;;;4988450;28;20125;-71
2023/07/16 08:56:43;;;;;;;6.07;2.63;;;22.90;55.90;;;;;;4983632;28;20042;-71
2023/07/16 08:59:10;;;;;;;7.80;3.25;;;23.00;56.50;;;;;;4983687;28;20030;-72
2023/07/16 09:01:36;;;;;;;9.32;2.83;;;22.80;57.90;;;;;;4980411;28;20339;-72
2023/07/16 09:04:02;;;;;;;8.48;3.25;;;22.90;56.60;;;;;;4980470;28;20141;-71
2023/07/16 09:06:27;;;;;;;7.15;3.20;;;23.30;57.20;;;;;;4982616;28;20031;-71
2023/07/16 09:08:53;;;;;;;6.90;3.03;;;23.40;56.40;;;;;;4985841;28;20416;-71
2023/07/16 09:11:21;;;;;;;7.97;3.28;;;23.80;56.10;;;;;;4985427;28;20487;-71
2023/07/16 09:13:46;;;;;;;7.50;3.10;;;23.40;56.70;;;;;;4988081;28;20037;-71
2023/07/16 09:16:12;;;;;;;6.68;2.97;;;23.20;57.80;;;;;;4986107;28;20053;-71
2023/07/16 09:18:39;;;;;;;6.80;2.75;;;23.10;55.00;;;;;;4987737;28;20520;-70
2023/07/16 09:21:06;;;;;;;7.25;3.33;;;23.20;55.90;;;;;;4985209;28;20034;-71
2023/07/16 09:23:32;;;;;;;5.78;2.80;;;23.00;56.50;;;;;;4981307;28;20062;-72
2023/07/16 09:25:58;;;;;;;7.50;2.90;;;22.70;55.40;;;;;;4982129;28;20090;-72
2023/07/16 09:28:24;;;;;;;8.00;2.92;;;22.60;57.40;;;;;;4986170;28;20075;-71
2023/07/16 09:30:52;;;;;;;6.78;3.05;;;22.60;55.80;;;;;;4983839;28;20081;-71
2023/07/16 09:33:25;;;;;;;8.40;3.38;;;22.10;57.40;;;;;;4979691;28;20085;-72
2023/07/16 09:35:51;;;;;;;7.72;2.92;;;21.60;57.90;;;;;;4983068;28;20143;-72
2023/07/16 09:38:18;;;;;;;6.93;3.10;;;22.10;58.50;;;;;;4985846;28;20030;-72
2023/07/16 09:40:44;;;;;;;8.13;3.15;;;22.20;57.30;;;;;;4988052;28;20110;-72
2023/07/16 09:43:11;;;;;;;7.35;3.20;;;22.10;58.20;;;;;;4983303;28;20030;-72
2023/07/16 09:45:37;;;;;;;9.02;3.08;;;22.30;56.90;;;;;;4981872;28;20125;-72
2023/07/16 09:48:03;;;;;;;8.70;2.95;;;22.50;58.10;;;;;;4983316;28;20113;-73
2023/07/16 09:50:32;;;;;;;6.15;3.03;;;22.50;57.10;;;;;;4987877;28;20352;-72
2023/07/16 09:52:57;;;;;;;7.13;2.78;;;22.60;56.90;;;;;;4990906;28;20451;-72
2023/07/16 09:55:24;;;;;;;7.13;3.20;;;22.80;56.60;;;;;;4985525;28;20185;-72
2023/07/16 09:57:53;;;;;;;6.70;3.15;;;23.00;55.50;;;;;;4984587;28;20054;-72
2023/07/16 10:00:21;;;;;;;6.43;3.10;;;22.50;55.60;;;;;;4977582;28;20046;-72
2023/07/16 10:02:47;;;;;;;6.15;3.13;;;22.80;55.70;;;;;;4983977;28;20053;-73
2023/07/16 10:05:17;;;;;;;5.47;3.20;;;23.00;54.30;;;;;;4982190;28;20471;-73
2023/07/16 10:07:49;;;;;;;6.38;2.72;;;23.50;55.70;;;;;;4983585;28;20165;-73
2023/07/16 10:10:17;;;;;;;7.20;2.78;;;23.80;52.20;;;;;;4982070;28;20646;-73
2023/07/16 10:12:43;;;;;;;6.60;3.17;;;24.30;54.40;;;;;;4976139;28;20097;-73
2023/07/16 10:15:11;;;;;;;6.82;2.83;;;24.60;51.20;;;;;;4981159;28;20205;-73
2023/07/16 10:17:37;;;;;;;7.47;3.20;;;23.70;51.90;;;;;;4982408;28;20054;-72
2023/07/16 10:20:07;;;;;;;6.40;3.05;;;23.30;53.70;;;;;;4988199;28;20030;-73
2023/07/16 10:22:34;;;;;;;;;;;23.40;54.80;;;;;;4982692;28;20072;-73
2023/07/16 10:25:00;;;;;;;6.65;2.90;;;23.50;54.90;;;;;;4996491;28;19979;-72
2023/07/16 10:27:27;;;;;;;7.35;3.05;;;23.00;54.30;;;;;;4989672;28;20085;-73
2023/07/16 10:29:54;;;;;;;10.40;3.03;;;22.70;54.20;;;;;;4985677;28;20045;-72
2023/07/16 10:32:20;;;;;;;5.65;2.80;;;22.50;55.40;;;;;;4984011;28;20026;-71
2023/07/16 10:34:45;;;;;;;9.20;2.83;;;22.50;55.30;;;;;;4986006;28;20389;-72
2023/07/16 10:37:11;;;;;;;8.15;2.95;;;22.30;54.10;;;;;;4980732;28;20141;-72
2023/07/16 10:39:48;;;;;;;6.82;2.60;;;22.50;54.70;;;;;;4984552;28;20061;-72
2023/07/16 10:42:13;;;;;;;7.72;3.08;;;22.30;54.80;;;;;;4984900;28;20026;-72
2023/07/16 10:44:40;;;;;;;7.13;2.60;;;22.00;55.20;;;;;;4990877;28;20477;-71
2023/07/16 10:47:05;;;;;;;9.23;3.25;;;22.30;55.00;;;;;;4984748;28;20045;-71
2023/07/16 10:49:31;;;;;;;11.32;2.78;;;22.50;54.50;;;;;;4989643;28;20164;-71
2023/07/16 10:52:00;;;;;;;10.00;3.10;;;22.60;54.40;;;;;;4983090;28;20175;-72
2023/07/16 10:54:25;;;;;;;8.05;3.08;;;22.80;55.70;;;;;;4986129;28;20045;-72
2023/07/16 10:56:51;;;;;;;5.57;2.53;;;22.70;55.40;;;;;;4982020;28;20034;-73
2023/07/16 10:59:17;;;;;;;10.20;2.78;;;23.00;54.80;;;;;;4986109;28;20078;-71
2023/07/16 11:01:44;;;;;;;6.82;2.60;;;23.00;53.70;;;;;;4981369;28;20035;-72
2023/07/16 11:04:09;;;;;;;9.57;3.03;;;23.60;52.20;;;;;;5001062;28;20026;-72
2023/07/16 11:06:38;;;;;;;5.60;2.88;;;23.90;52.50;;;;;;4983152;28;20451;-74
2023/07/16 11:09:09;;;;;;;6.50;2.60;;;24.40;51.10;;;;;;4986657;28;20045;-74
2023/07/16 11:11:35;;;;;;;4.53;2.33;;;24.70;50.80;;;;;;4989454;28;20030;-73
2023/07/16 11:14:06;;;;;;;7.13;2.78;;;25.00;50.40;;;;;;4984148;28;20034;-73
2023/07/16 11:16:38;;;;;;;6.32;2.78;;;24.60;50.40;;;;;;4980029;28;20034;-73
2023/07/16 11:19:05;;;;;;;8.48;3.00;;;24.80;51.00;;;;;;4988012;28;20321;-73
2023/07/16 11:21:32;;;;;;;6.00;2.60;;;24.00;51.80;;;;;;4979654;28;20166;-73
2023/07/16 11:24:08;;;;;;;6.82;2.58;;;23.90;50.50;;;;;;4976274;28;20037;-73
2023/07/16 11:26:34;;;;;;;8.75;3.00;;;23.30;52.70;;;;;;4985872;28;20027;-72
2023/07/16 11:28:59;;;;;;;7.82;2.40;;;23.20;53.70;;;;;;4989067;28;20049;-73
2023/07/16 11:31:25;;;;;;;5.32;2.15;;;23.30;53.50;;;;;;4982168;28;20030;-73
2023/07/16 11:33:50;;;;;;;4.07;2.33;;;23.10;53.20;;;;;;4978215;28;20058;-72
2023/07/16 11:36:16;;;;;;;6.25;2.38;;;22.90;54.00;;;;;;4976328;28;20035;-73
2023/07/16 11:38:42;;;;;;;5.07;2.40;;;23.50;53.00;;;;;;4985590;28;20026;-76
2023/07/16 11:41:08;;;;;;;6.22;2.55;;;23.20;53.60;;;;;;4988167;28;20053;-74
2023/07/16 11:43:35;;;;;;;5.47;2.40;;;22.90;53.00;;;;;;4987519;28;20153;-69
2023/07/16 11:46:01;;;;;;;6.95;2.63;;;22.60;53.90;;;;;;4991386;28;20113;-73
2023/07/16 11:48:27;;;;;;;6.55;2.28;;;22.50;53.60;;;;;;4988767;28;20082;-72
2023/07/16 11:50:52;;;;;;;5.32;2.28;;;22.50;54.00;;;;;;4985640;28;20441;-73
2023/07/16 11:53:18;;;;;;;7.93;2.83;;;22.30;54.30;;;;;;4985237;28;20113;-73
2023/07/16 11:55:43;;;;;;;4.35;2.35;;;22.50;55.70;;;;;;4987004;28;20100;-73
2023/07/16 11:58:09;;;;;;;6.80;2.10;;;22.60;53.80;;;;;;4989249;28;20052;-74
2023/07/16 12:00:34;;;;;;;6.82;2.60;;;22.60;53.80;;;;;;4984505;28;20435;-73
2023/07/16 12:03:00;;;;;;;7.43;2.05;;;22.60;55.50;;;;;;4996195;28;20058;-72
2023/07/16 12:05:27;;;;;;;9.43;2.40;;;22.50;54.40;;;;;;4984033;28;20054;-73
2023/07/16 12:07:53;;;;;;;7.82;2.40;;;22.20;54.80;;;;;;4979650;28;20080;-73
2023/07/16 12:10:19;;;;;;;7.32;2.45;;;22.40;55.70;;;;;;4983778;28;20034;-71
2023/07/16 12:12:44;;;;;;;6.38;2.47;;;22.60;54.80;;;;;;4985193;28;20033;-74
2023/07/16 12:15:10;;;;;;;8.50;2.40;;;22.60;54.00;;;;;;4986269;28;20034;-72
2023/07/16 12:17:36;;;;;;;7.00;2.28;;;23.00;54.20;;;;;;4986502;28;20045;-72
2023/07/16 12:20:03;;;;;;;7.15;2.40;;;23.20;53.40;;;;;;4984419;28;20042;-73
2023/07/16 12:22:29;;;;;;;4.85;2.30;;;23.20;53.60;;;;;;4980623;28;20022;-72
2023/07/16 12:24:54;;;;;;;7.10;2.08;;;23.30;53.10;;;;;;4986564;28;20041;-74
2023/07/16 12:27:20;;;;;;;5.03;2.33;;;23.20;53.30;;;;;;4976719;28;20527;-73
2023/07/16 12:29:46;;;;;;;5.13;2.30;;;23.30;53.00;;;;;;4983155;28;20102;-73
2023/07/16 12:32:13;;;;;;;6.68;1.98;;;23.50;53.30;;;;;;4986353;28;20121;-73
2023/07/16 12:34:39;;;;;;;5.38;2.22;;;23.60;52.10;;;;;;4983897;28;20054;-73
2023/07/16 12:37:05;;;;;;;4.00;2.00;;;23.70;52.80;;;;;;4978967;28;20038;-73
2023/07/16 12:39:30;;;;;;;5.93;2.45;;;24.20;51.70;;;;;;4982701;28;20430;-73
2023/07/16 12:41:56;;;;;;;8.25;2.55;;;24.40;51.20;;;;;;4982228;28;20048;-73